sensor_id;sensor_type;location;lat;lon;timestamp;P1;durP1;ratioP1;P2;durP2;ratioP2
18066;SDS011;9158;51.528;7.192;2023-04-03T00:00:29;7.18;;;5.93;;
18066;SDS011;9158;51.528;7.192;2023-04-03T00:01:00;7.35;;;5.75;;
18066;SDS011;9158;51.528;7.192;2023-04-03T00:01:32;8.98;;;6.03;;
18066;SDS011;9158;51.528;7.192;2023-04-03T00:02:05;10.52;;;6.45;;
18066;SDS011;9158;51.528;7.192;2023-04-03T00:02:39;10.40;;;5.60;;
18066;SDS011;9158;51.528;7.192;2023-04-03T00:03:10;10.43;;;6.32;;
18066;SDS011;9158;51.528;7.192;2023-04-03T00:03:42;8.32;;;6.30;;
18066;SDS011;9158;51.528;7.192;2023-04-03T00:04:13;9.23;;;6.18;;
18066;SDS011;9158;51.528;7.192;2023-04-03T00:04:44;8.95;;;6.05;;
18066;SDS011;9158;51.528;7.192;2023-04-03T00:05:16;9.98;;;6.28;;
18066;SDS011;9158;51.528;7.192;2023-04-03T00:05:47;6.13;;;5.10;;
18066;SDS011;9158;51.528;7.192;2023-04-03T00:06:18;7.88;;;5.70;;
18066;SDS011;9158;51.528;7.192;2023-04-03T00:06:51;6.65;;;5.82;;
18066;SDS011;9158;51.528;7.192;2023-04-03T00:07:22;8.27;;;5.80;;
18066;SDS011;9158;51.528;7.192;2023-04-03T00:07:53;6.60;;;5.30;;
18066;SDS011;9158;51.528;7.192;2023-04-03T00:08:24;8.10;;;6.03;;
18066;SDS011;9158;51.528;7.192;2023-04-03T00:08:56;8.82;;;5.55;;
18066;SDS011;9158;51.528;7.192;2023-04-03T00:09:27;9.07;;;5.75;;
18066;SDS011;9158;51.528;7.192;2023-04-03T00:09:58;8.77;;;5.90;;
18066;SDS011;9158;51.528;7.192;2023-04-03T00:10:30;9.32;;;6.35;;
18066;SDS011;9158;51.528;7.192;2023-04-03T00:11:01;5.72;;;5.15;;
18066;SDS011;9158;51.528;7.192;2023-04-03T00:11:34;9.95;;;6.03;;
18066;SDS011;9158;51.528;7.192;2023-04-03T00:12:06;7.93;;;6.35;;
18066;SDS011;9158;51.528;7.192;2023-04-03T00:12:37;7.00;;;5.30;;
18066;SDS011;9158;51.528;7.192;2023-04-03T00:13:08;7.13;;;5.90;;
18066;SDS011;9158;51.528;7.192;2023-04-03T00:13:40;7.50;;;6.05;;
18066;SDS011;9158;51.528;7.192;2023-04-03T00:14:12;9.25;;;5.40;;
18066;SDS011;9158;51.528;7.192;2023-04-03T00:14:43;5.95;;;5.07;;
18066;SDS011;9158;51.528;7.192;2023-04-03T00:15:14;7.85;;;6.10;;
18066;SDS011;9158;51.528;7.192;2023-04-03T00:15:46;6.70;;;5.60;;
18066;SDS011;9158;51.528;7.192;2023-04-03T00:16:17;8.00;;;6.25;;
18066;SDS011;9158;51.528;7.192;2023-04-03T00:16:48;11.30;;;6.75;;
18066;SDS011;9158;51.528;7.192;2023-04-03T00:17:20;7.35;;;6.22;;
18066;SDS011;9158;51.528;7.192;2023-04-03T00:17:51;7.20;;;6.20;;
18066;SDS011;9158;51.528;7.192;2023-04-03T00:18:22;7.40;;;5.35;;
18066;SDS011;9158;51.528;7.192;2023-04-03T00:18:53;6.05;;;5.45;;
18066;SDS011;9158;51.528;7.192;2023-04-03T00:19:25;7.90;;;6.20;;
18066;SDS011;9158;51.528;7.192;2023-04-03T00:19:56;6.72;;;5.93;;
18066;SDS011;9158;51.528;7.192;2023-04-03T00:20:27;6.88;;;5.90;;
18066;SDS011;9158;51.528;7.192;2023-04-03T00:20:59;7.80;;;5.60;;
18066;SDS011;9158;51.528;7.192;2023-04-03T00:21:30;8.75;;;6.30;;
18066;SDS011;9158;51.528;7.192;2023-04-03T00:22:02;10.70;;;6.97;;
18066;SDS011;9158;51.528;7.192;2023-04-03T00:22:34;7.63;;;6.10;;
18066;SDS011;9158;51.528;7.192;2023-04-03T00:23:05;10.07;;;5.90;;
18066;SDS011;9158;51.528;7.192;2023-04-03T00:23:36;6.10;;;5.38;;
18066;SDS011;9158;51.528;7.192;2023-04-03T00:24:07;7.93;;;6.07;;
18066;SDS011;9158;51.528;7.192;2023-04-03T00:24:39;6.75;;;6.03;;
18066;SDS011;9158;51.528;7.192;2023-04-03T00:25:10;8.60;;;6.90;;
18066;SDS011;9158;51.528;7.192;2023-04-03T00:25:41;7.72;;;6.72;;
18066;SDS011;9158;51.528;7.192;2023-04-03T00:26:13;7.22;;;6.20;;
18066;SDS011;9158;51.528;7.192;2023-04-03T00:26:46;8.43;;;5.70;;
18066;SDS011;9158;51.528;7.192;2023-04-03T00:27:17;7.72;;;6.95;;
18066;SDS011;9158;51.528;7.192;2023-04-03T00:27:48;7.95;;;6.72;;
18066;SDS011;9158;51.528;7.192;2023-04-03T00:28:20;9.75;;;6.97;;
18066;SDS011;9158;51.528;7.192;2023-04-03T00:28:52;6.05;;;5.47;;
18066;SDS011;9158;51.528;7.192;2023-04-03T00:29:23;7.00;;;6.10;;
18066;SDS011;9158;51.528;7.192;2023-04-03T00:29:55;7.13;;;6.40;;
18066;SDS011;9158;51.528;7.192;2023-04-03T00:30:27;6.65;;;5.30;;
18066;SDS011;9158;51.528;7.192;2023-04-03T00:30:58;7.28;;;6.53;;
18066;SDS011;9158;51.528;7.192;2023-04-03T00:31:29;8.88;;;7.50;;
18066;SDS011;9158;51.528;7.192;2023-04-03T00:32:01;8.82;;;6.38;;
18066;SDS011;9158;51.528;7.192;2023-04-03T00:32:32;10.90;;;7.57;;
18066;SDS011;9158;51.528;7.192;2023-04-03T00:33:03;10.02;;;7.00;;
18066;SDS011;9158;51.528;7.192;2023-04-03T00:33:36;7.80;;;6.88;;
18066;SDS011;9158;51.528;7.192;2023-04-03T00:34:07;9.35;;;6.25;;
18066;SDS011;9158;51.528;7.192;2023-04-03T00:34:38;8.13;;;7.18;;
18066;SDS011;9158;51.528;7.192;2023-04-03T00:35:10;7.82;;;6.72;;
18066;SDS011;9158;51.528;7.192;2023-04-03T00:35:42;7.72;;;6.93;;
18066;SDS011;9158;51.528;7.192;2023-04-03T00:36:13;9.02;;;7.05;;
18066;SDS011;9158;51.528;7.192;2023-04-03T00:36:45;7.05;;;6.03;;
18066;SDS011;9158;51.528;7.192;2023-04-03T00:37:16;9.35;;;7.00;;
18066;SDS011;9158;51.528;7.192;2023-04-03T00:37:47;9.13;;;6.60;;
18066;SDS011;9158;51.528;7.192;2023-04-03T00:38:21;7.80;;;6.97;;
18066;SDS011;9158;51.528;7.192;2023-04-03T00:38:52;11.88;;;7.05;;
18066;SDS011;9158;51.528;7.192;2023-04-03T00:39:24;8.57;;;6.75;;
18066;SDS011;9158;51.528;7.192;2023-04-03T00:39:56;9.00;;;7.13;;
18066;SDS011;9158;51.528;7.192;2023-04-03T00:40:27;8.02;;;7.20;;
18066;SDS011;9158;51.528;7.192;2023-04-03T00:41:03;13.50;;;6.80;;
18066;SDS011;9158;51.528;7.192;2023-04-03T00:41:35;7.40;;;6.65;;
18066;SDS011;9158;51.528;7.192;2023-04-03T00:42:08;11.18;;;7.22;;
18066;SDS011;9158;51.528;7.192;2023-04-03T00:42:39;10.50;;;6.80;;
18066;SDS011;9158;51.528;7.192;2023-04-03T00:43:13;11.10;;;7.30;;
18066;SDS011;9158;51.528;7.192;2023-04-03T00:43:46;9.07;;;7.40;;
18066;SDS011;9158;51.528;7.192;2023-04-03T00:44:21;7.07;;;6.25;;
18066;SDS011;9158;51.528;7.192;2023-04-03T00:45:33;7.75;;;6.65;;
18066;SDS011;9158;51.528;7.192;2023-04-03T00:46:06;7.80;;;6.18;;
18066;SDS011;9158;51.528;7.192;2023-04-03T00:46:38;13.98;;;6.07;;
18066;SDS011;9158;51.528;7.192;2023-04-03T00:47:10;10.55;;;6.88;;
18066;SDS011;9158;51.528;7.192;2023-04-03T00:47:44;10.05;;;6.53;;
18066;SDS011;9158;51.528;7.192;2023-04-03T00:48:17;11.30;;;7.78;;
18066;SDS011;9158;51.528;7.192;2023-04-03T00:48:51;8.40;;;5.93;;
18066;SDS011;9158;51.528;7.192;2023-04-03T00:49:22;11.07;;;7.03;;
18066;SDS011;9158;51.528;7.192;2023-04-03T00:49:53;8.27;;;6.55;;
18066;SDS011;9158;51.528;7.192;2023-04-03T00:50:26;7.55;;;6.55;;
18066;SDS011;9158;51.528;7.192;2023-04-03T00:50:58;8.07;;;6.75;;
18066;SDS011;9158;51.528;7.192;2023-04-03T00:51:30;10.68;;;6.80;;
18066;SDS011;9158;51.528;7.192;2023-04-03T00:52:02;8.73;;;6.63;;
18066;SDS011;9158;51.528;7.192;2023-04-03T00:52:36;9.30;;;7.47;;
18066;SDS011;9158;51.528;7.192;2023-04-03T00:53:08;10.65;;;6.32;;
18066;SDS011;9158;51.528;7.192;2023-04-03T00:53:44;9.05;;;6.60;;
18066;SDS011;9158;51.528;7.192;2023-04-03T00:54:19;10.93;;;6.30;;
18066;SDS011;9158;51.528;7.192;2023-04-03T00:54:50;7.53;;;6.20;;
18066;SDS011;9158;51.528;7.192;2023-04-03T00:55:26;7.63;;;6.35;;
18066;SDS011;9158;51.528;7.192;2023-04-03T00:55:57;7.50;;;5.82;;
18066;SDS011;9158;51.528;7.192;2023-04-03T00:56:31;6.68;;;5.10;;
18066;SDS011;9158;51.528;7.192;2023-04-03T00:57:02;5.85;;;4.88;;
18066;SDS011;9158;51.528;7.192;2023-04-03T00:57:37;8.07;;;5.43;;
18066;SDS011;9158;51.528;7.192;2023-04-03T00:58:08;8.88;;;6.20;;
18066;SDS011;9158;51.528;7.192;2023-04-03T00:58:41;7.55;;;6.15;;
18066;SDS011;9158;51.528;7.192;2023-04-03T00:59:18;8.20;;;6.38;;
18066;SDS011;9158;51.528;7.192;2023-04-03T00:59:57;7.32;;;6.28;;
18066;SDS011;9158;51.528;7.192;2023-04-03T01:00:33;6.50;;;5.90;;
18066;SDS011;9158;51.528;7.192;2023-04-03T01:01:08;6.88;;;6.20;;
18066;SDS011;9158;51.528;7.192;2023-04-03T01:01:43;8.27;;;6.07;;
18066;SDS011;9158;51.528;7.192;2023-04-03T01:02:16;6.10;;;5.50;;
18066;SDS011;9158;51.528;7.192;2023-04-03T01:02:47;8.63;;;6.25;;
18066;SDS011;9158;51.528;7.192;2023-04-03T01:03:19;6.97;;;5.82;;
18066;SDS011;9158;51.528;7.192;2023-04-03T01:03:51;7.97;;;6.22;;
18066;SDS011;9158;51.528;7.192;2023-04-03T01:04:26;9.45;;;5.70;;
18066;SDS011;9158;51.528;7.192;2023-04-03T01:04:59;7.88;;;5.40;;
18066;SDS011;9158;51.528;7.192;2023-04-03T01:05:31;6.32;;;5.63;;
18066;SDS011;9158;51.528;7.192;2023-04-03T01:06:03;5.65;;;5.05;;
18066;SDS011;9158;51.528;7.192;2023-04-03T01:06:36;6.30;;;5.18;;
18066;SDS011;9158;51.528;7.192;2023-04-03T01:07:12;5.93;;;5.03;;
18066;SDS011;9158;51.528;7.192;2023-04-03T01:07:46;7.95;;;5.78;;
18066;SDS011;9158;51.528;7.192;2023-04-03T01:08:19;7.25;;;5.75;;
18066;SDS011;9158;51.528;7.192;2023-04-03T01:08:50;6.00;;;5.35;;
18066;SDS011;9158;51.528;7.192;2023-04-03T01:09:21;6.95;;;6.00;;
18066;SDS011;9158;51.528;7.192;2023-04-03T01:09:54;6.38;;;4.90;;
18066;SDS011;9158;51.528;7.192;2023-04-03T01:10:27;9.00;;;5.55;;
18066;SDS011;9158;51.528;7.192;2023-04-03T01:10:58;6.07;;;5.15;;
18066;SDS011;9158;51.528;7.192;2023-04-03T01:11:31;5.70;;;5.05;;
18066;SDS011;9158;51.528;7.192;2023-04-03T01:12:14;7.85;;;6.05;;
18066;SDS011;9158;51.528;7.192;2023-04-03T01:12:48;5.97;;;4.15;;
18066;SDS011;9158;51.528;7.192;2023-04-03T01:13:23;7.82;;;5.10;;
18066;SDS011;9158;51.528;7.192;2023-04-03T01:13:56;7.65;;;4.85;;
18066;SDS011;9158;51.528;7.192;2023-04-03T01:14:28;6.63;;;4.60;;
18066;SDS011;9158;51.528;7.192;2023-04-03T01:15:01;5.88;;;4.53;;
18066;SDS011;9158;51.528;7.192;2023-04-03T01:15:35;7.40;;;5.60;;
18066;SDS011;9158;51.528;7.192;2023-04-03T01:16:06;7.22;;;4.28;;
18066;SDS011;9158;51.528;7.192;2023-04-03T01:16:39;5.47;;;4.97;;
18066;SDS011;9158;51.528;7.192;2023-04-03T01:17:24;10.20;;;5.30;;
18066;SDS011;9158;51.528;7.192;2023-04-03T01:17:58;7.32;;;4.25;;
18066;SDS011;9158;51.528;7.192;2023-04-03T01:18:30;5.03;;;4.55;;
18066;SDS011;9158;51.528;7.192;2023-04-03T01:19:03;5.50;;;4.57;;
18066;SDS011;9158;51.528;7.192;2023-04-03T01:19:38;8.95;;;4.55;;
18066;SDS011;9158;51.528;7.192;2023-04-03T01:20:25;5.50;;;4.50;;
18066;SDS011;9158;51.528;7.192;2023-04-03T01:21:23;4.97;;;4.50;;
18066;SDS011;9158;51.528;7.192;2023-04-03T01:22:15;5.72;;;5.10;;
18066;SDS011;9158;51.528;7.192;2023-04-03T01:22:56;4.63;;;3.60;;
18066;SDS011;9158;51.528;7.192;2023-04-03T01:23:38;7.43;;;4.20;;
18066;SDS011;9158;51.528;7.192;2023-04-03T01:24:27;5.25;;;4.00;;
18066;SDS011;9158;51.528;7.192;2023-04-03T01:25:05;9.88;;;5.72;;
18066;SDS011;9158;51.528;7.192;2023-04-03T01:25:38;6.97;;;3.40;;
18066;SDS011;9158;51.528;7.192;2023-04-03T01:26:12;7.10;;;4.28;;
18066;SDS011;9158;51.528;7.192;2023-04-03T01:26:43;5.30;;;4.03;;
18066;SDS011;9158;51.528;7.192;2023-04-03T01:27:15;8.68;;;5.10;;
18066;SDS011;9158;51.528;7.192;2023-04-03T01:27:48;4.95;;;4.53;;
18066;SDS011;9158;51.528;7.192;2023-04-03T01:28:21;4.93;;;3.20;;
18066;SDS011;9158;51.528;7.192;2023-04-03T01:28:54;3.67;;;3.10;;
18066;SDS011;9158;51.528;7.192;2023-04-03T01:29:26;5.43;;;3.40;;
18066;SDS011;9158;51.528;7.192;2023-04-03T01:29:57;4.55;;;3.47;;
18066;SDS011;9158;51.528;7.192;2023-04-03T01:30:30;5.30;;;3.40;;
18066;SDS011;9158;51.528;7.192;2023-04-03T01:31:06;6.47;;;3.88;;
18066;SDS011;9158;51.528;7.192;2023-04-03T01:31:50;4.65;;;2.85;;
18066;SDS011;9158;51.528;7.192;2023-04-03T01:32:22;3.63;;;3.33;;
18066;SDS011;9158;51.528;7.192;2023-04-03T01:32:53;6.45;;;3.97;;
18066;SDS011;9158;51.528;7.192;2023-04-03T01:33:25;5.28;;;3.22;;
18066;SDS011;9158;51.528;7.192;2023-04-03T01:33:57;3.97;;;3.33;;
18066;SDS011;9158;51.528;7.192;2023-04-03T01:34:29;6.57;;;3.78;;
18066;SDS011;9158;51.528;7.192;2023-04-03T01:35:03;5.30;;;3.28;;
18066;SDS011;9158;51.528;7.192;2023-04-03T01:35:34;4.53;;;4.13;;
18066;SDS011;9158;51.528;7.192;2023-04-03T01:36:06;8.27;;;3.33;;
18066;SDS011;9158;51.528;7.192;2023-04-03T01:36:38;4.32;;;3.50;;
18066;SDS011;9158;51.528;7.192;2023-04-03T01:37:10;4.65;;;3.55;;
18066;SDS011;9158;51.528;7.192;2023-04-03T01:37:41;3.55;;;3.00;;
18066;SDS011;9158;51.528;7.192;2023-04-03T01:38:12;5.18;;;4.07;;
18066;SDS011;9158;51.528;7.192;2023-04-03T01:38:44;3.53;;;3.22;;
18066;SDS011;9158;51.528;7.192;2023-04-03T01:39:15;3.63;;;3.20;;
18066;SDS011;9158;51.528;7.192;2023-04-03T01:39:46;7.20;;;3.55;;
18066;SDS011;9158;51.528;7.192;2023-04-03T01:40:17;4.13;;;3.40;;
18066;SDS011;9158;51.528;7.192;2023-04-03T01:40:50;3.60;;;2.90;;
18066;SDS011;9158;51.528;7.192;2023-04-03T01:41:21;4.88;;;3.45;;
18066;SDS011;9158;51.528;7.192;2023-04-03T01:41:54;5.03;;;3.80;;
18066;SDS011;9158;51.528;7.192;2023-04-03T01:42:32;3.70;;;3.40;;
18066;SDS011;9158;51.528;7.192;2023-04-03T01:43:03;5.00;;;3.30;;
18066;SDS011;9158;51.528;7.192;2023-04-03T01:43:34;8.55;;;3.30;;
18066;SDS011;9158;51.528;7.192;2023-04-03T01:44:06;5.43;;;3.20;;
18066;SDS011;9158;51.528;7.192;2023-04-03T01:44:37;3.45;;;3.15;;
18066;SDS011;9158;51.528;7.192;2023-04-03T01:45:09;9.70;;;2.90;;
18066;SDS011;9158;51.528;7.192;2023-04-03T01:45:41;3.88;;;2.80;;
18066;SDS011;9158;51.528;7.192;2023-04-03T01:46:12;4.65;;;2.90;;
18066;SDS011;9158;51.528;7.192;2023-04-03T01:46:43;4.93;;;2.85;;
18066;SDS011;9158;51.528;7.192;2023-04-03T01:47:16;8.20;;;3.25;;
18066;SDS011;9158;51.528;7.192;2023-04-03T01:47:48;3.13;;;2.60;;
18066;SDS011;9158;51.528;7.192;2023-04-03T01:48:19;4.20;;;2.33;;
18066;SDS011;9158;51.528;7.192;2023-04-03T01:48:51;2.85;;;2.58;;
18066;SDS011;9158;51.528;7.192;2023-04-03T01:49:22;3.72;;;2.67;;
18066;SDS011;9158;51.528;7.192;2023-04-03T01:49:53;4.95;;;2.80;;
18066;SDS011;9158;51.528;7.192;2023-04-03T01:50:25;2.67;;;2.47;;
18066;SDS011;9158;51.528;7.192;2023-04-03T01:50:57;4.72;;;2.78;;
18066;SDS011;9158;51.528;7.192;2023-04-03T01:51:28;3.05;;;2.40;;
18066;SDS011;9158;51.528;7.192;2023-04-03T01:51:59;3.65;;;2.38;;
18066;SDS011;9158;51.528;7.192;2023-04-03T01:52:31;10.13;;;3.63;;
18066;SDS011;9158;51.528;7.192;2023-04-03T01:53:02;2.15;;;1.95;;
18066;SDS011;9158;51.528;7.192;2023-04-03T01:53:34;4.15;;;2.83;;
18066;SDS011;9158;51.528;7.192;2023-04-03T01:54:06;5.30;;;4.25;;
18066;SDS011;9158;51.528;7.192;2023-04-03T01:54:37;3.63;;;2.20;;
18066;SDS011;9158;51.528;7.192;2023-04-03T01:55:08;4.05;;;2.63;;
18066;SDS011;9158;51.528;7.192;2023-04-03T01:55:40;3.00;;;2.60;;
18066;SDS011;9158;51.528;7.192;2023-04-03T01:56:12;8.55;;;2.92;;
18066;SDS011;9158;51.528;7.192;2023-04-03T01:56:43;2.78;;;1.85;;
18066;SDS011;9158;51.528;7.192;2023-04-03T01:57:15;3.00;;;2.10;;
18066;SDS011;9158;51.528;7.192;2023-04-03T01:57:46;6.15;;;2.95;;
18066;SDS011;9158;51.528;7.192;2023-04-03T01:58:17;4.43;;;2.50;;
18066;SDS011;9158;51.528;7.192;2023-04-03T01:58:48;5.32;;;2.42;;
18066;SDS011;9158;51.528;7.192;2023-04-03T01:59:21;3.00;;;2.63;;
18066;SDS011;9158;51.528;7.192;2023-04-03T01:59:52;5.05;;;2.05;;
18066;SDS011;9158;51.528;7.192;2023-04-03T02:00:23;4.15;;;2.85;;
18066;SDS011;9158;51.528;7.192;2023-04-03T02:00:56;2.97;;;2.22;;
18066;SDS011;9158;51.528;7.192;2023-04-03T02:01:28;1.88;;;1.70;;
18066;SDS011;9158;51.528;7.192;2023-04-03T02:01:59;2.47;;;2.28;;
18066;SDS011;9158;51.528;7.192;2023-04-03T02:02:32;3.15;;;2.10;;
18066;SDS011;9158;51.528;7.192;2023-04-03T02:03:03;2.33;;;2.13;;
18066;SDS011;9158;51.528;7.192;2023-04-03T02:03:34;4.28;;;2.35;;
18066;SDS011;9158;51.528;7.192;2023-04-03T02:04:07;4.95;;;2.58;;
18066;SDS011;9158;51.528;7.192;2023-04-03T02:04:38;2.65;;;2.03;;
18066;SDS011;9158;51.528;7.192;2023-04-03T02:05:09;3.25;;;1.58;;
18066;SDS011;9158;51.528;7.192;2023-04-03T02:05:40;5.68;;;2.25;;
18066;SDS011;9158;51.528;7.192;2023-04-03T02:06:12;6.05;;;3.22;;
18066;SDS011;9158;51.528;7.192;2023-04-03T02:06:44;5.18;;;4.32;;
18066;SDS011;9158;51.528;7.192;2023-04-03T02:07:15;2.35;;;2.08;;
18066;SDS011;9158;51.528;7.192;2023-04-03T02:07:47;4.35;;;2.70;;
18066;SDS011;9158;51.528;7.192;2023-04-03T02:08:18;3.15;;;2.35;;
18066;SDS011;9158;51.528;7.192;2023-04-03T02:08:49;1.92;;;1.75;;
18066;SDS011;9158;51.528;7.192;2023-04-03T02:09:21;3.75;;;2.60;;
18066;SDS011;9158;51.528;7.192;2023-04-03T02:09:53;4.28;;;2.03;;
18066;SDS011;9158;51.528;7.192;2023-04-03T02:10:24;3.92;;;2.50;;
18066;SDS011;9158;51.528;7.192;2023-04-03T02:10:55;5.93;;;2.63;;
18066;SDS011;9158;51.528;7.192;2023-04-03T02:11:27;3.45;;;2.00;;
18066;SDS011;9158;51.528;7.192;2023-04-03T02:11:58;3.33;;;1.67;;
18066;SDS011;9158;51.528;7.192;2023-04-03T02:12:29;5.55;;;2.50;;
18066;SDS011;9158;51.528;7.192;2023-04-03T02:13:02;1.98;;;1.83;;
18066;SDS011;9158;51.528;7.192;2023-04-03T02:13:33;3.00;;;2.20;;
18066;SDS011;9158;51.528;7.192;2023-04-03T02:14:05;1.75;;;1.65;;
18066;SDS011;9158;51.528;7.192;2023-04-03T02:14:38;4.57;;;2.10;;
18066;SDS011;9158;51.528;7.192;2023-04-03T02:15:09;4.55;;;1.67;;
18066;SDS011;9158;51.528;7.192;2023-04-03T02:15:40;5.95;;;2.60;;
18066;SDS011;9158;51.528;7.192;2023-04-03T02:16:12;2.05;;;1.45;;
18066;SDS011;9158;51.528;7.192;2023-04-03T02:16:43;3.08;;;1.85;;
18066;SDS011;9158;51.528;7.192;2023-04-03T02:17:16;5.72;;;2.63;;
18066;SDS011;9158;51.528;7.192;2023-04-03T02:17:48;5.22;;;2.10;;
18066;SDS011;9158;51.528;7.192;2023-04-03T02:18:19;2.05;;;1.80;;
18066;SDS011;9158;51.528;7.192;2023-04-03T02:18:52;3.60;;;1.90;;
18066;SDS011;9158;51.528;7.192;2023-04-03T02:19:23;6.93;;;2.25;;
18066;SDS011;9158;51.528;7.192;2023-04-03T02:19:54;6.68;;;2.67;;
18066;SDS011;9158;51.528;7.192;2023-04-03T02:20:27;3.95;;;2.20;;
18066;SDS011;9158;51.528;7.192;2023-04-03T02:20:58;3.88;;;2.15;;
18066;SDS011;9158;51.528;7.192;2023-04-03T02:21:30;3.80;;;2.75;;
18066;SDS011;9158;51.528;7.192;2023-04-03T02:22:02;4.28;;;2.22;;
18066;SDS011;9158;51.528;7.192;2023-04-03T02:22:34;5.47;;;2.42;;
18066;SDS011;9158;51.528;7.192;2023-04-03T02:23:06;3.00;;;2.00;;
18066;SDS011;9158;51.528;7.192;2023-04-03T02:23:38;4.05;;;2.40;;
18066;SDS011;9158;51.528;7.192;2023-04-03T02:24:09;3.60;;;2.67;;
18066;SDS011;9158;51.528;7.192;2023-04-03T02:24:40;4.47;;;2.00;;
18066;SDS011;9158;51.528;7.192;2023-04-03T02:25:12;2.83;;;1.60;;
18066;SDS011;9158;51.528;7.192;2023-04-03T02:25:44;4.50;;;2.35;;
18066;SDS011;9158;51.528;7.192;2023-04-03T02:26:16;7.50;;;2.72;;
18066;SDS011;9158;51.528;7.192;2023-04-03T02:26:49;9.05;;;2.10;;
18066;SDS011;9158;51.528;7.192;2023-04-03T02:27:20;2.22;;;1.58;;
18066;SDS011;9158;51.528;7.192;2023-04-03T02:27:52;8.82;;;1.83;;
18066;SDS011;9158;51.528;7.192;2023-04-03T02:28:25;2.70;;;2.15;;
18066;SDS011;9158;51.528;7.192;2023-04-03T02:28:56;5.95;;;2.22;;
18066;SDS011;9158;51.528;7.192;2023-04-03T02:29:27;2.33;;;1.50;;
18066;SDS011;9158;51.528;7.192;2023-04-03T02:29:59;3.65;;;2.15;;
18066;SDS011;9158;51.528;7.192;2023-04-03T02:30:30;2.72;;;1.85;;
18066;SDS011;9158;51.528;7.192;2023-04-03T02:31:02;2.30;;;2.00;;
18066;SDS011;9158;51.528;7.192;2023-04-03T02:31:36;2.60;;;1.95;;
18066;SDS011;9158;51.528;7.192;2023-04-03T02:32:09;4.05;;;1.80;;
18066;SDS011;9158;51.528;7.192;2023-04-03T02:32:41;2.50;;;1.67;;
18066;SDS011;9158;51.528;7.192;2023-04-03T02:33:16;4.85;;;2.40;;
18066;SDS011;9158;51.528;7.192;2023-04-03T02:33:47;4.43;;;2.30;;
18066;SDS011;9158;51.528;7.192;2023-04-03T02:34:19;1.70;;;1.60;;
18066;SDS011;9158;51.528;7.192;2023-04-03T02:34:52;8.45;;;2.10;;
18066;SDS011;9158;51.528;7.192;2023-04-03T02:35:23;2.47;;;1.20;;
18066;SDS011;9158;51.528;7.192;2023-04-03T02:35:55;4.47;;;2.00;;
18066;SDS011;9158;51.528;7.192;2023-04-03T02:36:28;2.75;;;1.70;;
18066;SDS011;9158;51.528;7.192;2023-04-03T02:37:02;2.58;;;1.70;;
18066;SDS011;9158;51.528;7.192;2023-04-03T02:37:33;4.55;;;1.45;;
18066;SDS011;9158;51.528;7.192;2023-04-03T02:38:06;1.92;;;1.35;;
18066;SDS011;9158;51.528;7.192;2023-04-03T02:38:38;3.15;;;1.85;;
18066;SDS011;9158;51.528;7.192;2023-04-03T02:39:09;3.20;;;2.05;;
18066;SDS011;9158;51.528;7.192;2023-04-03T02:39:41;4.43;;;1.90;;
18066;SDS011;9158;51.528;7.192;2023-04-03T02:40:12;4.30;;;2.05;;
18066;SDS011;9158;51.528;7.192;2023-04-03T02:40:43;4.47;;;2.90;;
18066;SDS011;9158;51.528;7.192;2023-04-03T02:41:15;5.35;;;2.13;;
18066;SDS011;9158;51.528;7.192;2023-04-03T02:41:46;5.95;;;1.58;;
18066;SDS011;9158;51.528;7.192;2023-04-03T02:42:23;1.85;;;1.27;;
18066;SDS011;9158;51.528;7.192;2023-04-03T02:42:56;5.68;;;2.08;;
18066;SDS011;9158;51.528;7.192;2023-04-03T02:43:28;2.13;;;1.98;;
18066;SDS011;9158;51.528;7.192;2023-04-03T02:44:04;2.05;;;1.80;;
18066;SDS011;9158;51.528;7.192;2023-04-03T02:44:40;4.68;;;2.17;;
18066;SDS011;9158;51.528;7.192;2023-04-03T02:45:13;5.75;;;2.20;;
18066;SDS011;9158;51.528;7.192;2023-04-03T02:45:45;4.50;;;2.55;;
18066;SDS011;9158;51.528;7.192;2023-04-03T02:46:17;7.22;;;2.47;;
18066;SDS011;9158;51.528;7.192;2023-04-03T02:46:48;3.95;;;2.67;;
18066;SDS011;9158;51.528;7.192;2023-04-03T02:47:21;3.28;;;2.25;;
18066;SDS011;9158;51.528;7.192;2023-04-03T02:47:53;5.20;;;2.15;;
18066;SDS011;9158;51.528;7.192;2023-04-03T02:48:25;5.18;;;2.80;;
18066;SDS011;9158;51.528;7.192;2023-04-03T02:48:58;4.40;;;2.10;;
18066;SDS011;9158;51.528;7.192;2023-04-03T02:49:30;2.30;;;1.85;;
18066;SDS011;9158;51.528;7.192;2023-04-03T02:50:01;4.47;;;2.00;;
18066;SDS011;9158;51.528;7.192;2023-04-03T02:50:32;2.83;;;1.70;;
18066;SDS011;9158;51.528;7.192;2023-04-03T02:51:05;3.00;;;2.00;;
18066;SDS011;9158;51.528;7.192;2023-04-03T02:51:36;3.80;;;2.60;;
18066;SDS011;9158;51.528;7.192;2023-04-03T02:52:07;3.75;;;1.90;;
18066;SDS011;9158;51.528;7.192;2023-04-03T02:52:39;2.88;;;2.30;;
18066;SDS011;9158;51.528;7.192;2023-04-03T02:53:10;4.50;;;2.50;;
18066;SDS011;9158;51.528;7.192;2023-04-03T02:53:41;2.35;;;1.50;;
18066;SDS011;9158;51.528;7.192;2023-04-03T02:54:18;4.13;;;2.30;;
18066;SDS011;9158;51.528;7.192;2023-04-03T02:54:54;4.90;;;2.67;;
18066;SDS011;9158;51.528;7.192;2023-04-03T02:55:25;2.63;;;2.00;;
18066;SDS011;9158;51.528;7.192;2023-04-03T02:55:59;5.70;;;2.15;;
18066;SDS011;9158;51.528;7.192;2023-04-03T02:56:31;2.25;;;1.80;;
18066;SDS011;9158;51.528;7.192;2023-04-03T02:57:03;5.70;;;2.22;;
18066;SDS011;9158;51.528;7.192;2023-04-03T02:57:34;3.05;;;2.15;;
18066;SDS011;9158;51.528;7.192;2023-04-03T02:58:06;8.23;;;2.15;;
18066;SDS011;9158;51.528;7.192;2023-04-03T02:58:37;4.70;;;1.60;;
18066;SDS011;9158;51.528;7.192;2023-04-03T02:59:09;3.17;;;1.70;;
18066;SDS011;9158;51.528;7.192;2023-04-03T02:59:43;2.90;;;2.13;;
18066;SDS011;9158;51.528;7.192;2023-04-03T03:00:15;3.08;;;1.48;;
18066;SDS011;9158;51.528;7.192;2023-04-03T03:00:47;3.80;;;1.77;;
18066;SDS011;9158;51.528;7.192;2023-04-03T03:01:19;3.13;;;1.63;;
18066;SDS011;9158;51.528;7.192;2023-04-03T03:01:50;2.45;;;1.60;;
18066;SDS011;9158;51.528;7.192;2023-04-03T03:02:21;3.58;;;2.00;;
18066;SDS011;9158;51.528;7.192;2023-04-03T03:02:53;3.47;;;2.60;;
18066;SDS011;9158;51.528;7.192;2023-04-03T03:03:26;4.60;;;2.45;;
18066;SDS011;9158;51.528;7.192;2023-04-03T03:03:57;3.53;;;2.10;;
18066;SDS011;9158;51.528;7.192;2023-04-03T03:04:29;4.80;;;1.70;;
18066;SDS011;9158;51.528;7.192;2023-04-03T03:05:01;4.00;;;2.50;;
18066;SDS011;9158;51.528;7.192;2023-04-03T03:05:32;7.35;;;2.08;;
18066;SDS011;9158;51.528;7.192;2023-04-03T03:06:04;4.10;;;2.25;;
18066;SDS011;9158;51.528;7.192;2023-04-03T03:06:37;5.47;;;2.00;;
18066;SDS011;9158;51.528;7.192;2023-04-03T03:07:08;3.83;;;1.90;;
18066;SDS011;9158;51.528;7.192;2023-04-03T03:07:40;5.90;;;1.73;;
18066;SDS011;9158;51.528;7.192;2023-04-03T03:08:12;2.50;;;1.60;;
18066;SDS011;9158;51.528;7.192;2023-04-03T03:08:43;5.60;;;2.42;;
18066;SDS011;9158;51.528;7.192;2023-04-03T03:09:15;3.10;;;1.85;;
18066;SDS011;9158;51.528;7.192;2023-04-03T03:09:46;4.72;;;1.88;;
18066;SDS011;9158;51.528;7.192;2023-04-03T03:10:18;5.75;;;2.38;;
18066;SDS011;9158;51.528;7.192;2023-04-03T03:10:50;5.25;;;2.20;;
18066;SDS011;9158;51.528;7.192;2023-04-03T03:11:21;3.10;;;1.73;;
18066;SDS011;9158;51.528;7.192;2023-04-03T03:11:52;4.32;;;2.30;;
18066;SDS011;9158;51.528;7.192;2023-04-03T03:12:25;4.10;;;1.98;;
18066;SDS011;9158;51.528;7.192;2023-04-03T03:12:56;4.93;;;2.35;;
18066;SDS011;9158;51.528;7.192;2023-04-03T03:13:27;4.97;;;2.33;;
18066;SDS011;9158;51.528;7.192;2023-04-03T03:13:59;3.50;;;2.50;;
18066;SDS011;9158;51.528;7.192;2023-04-03T03:14:30;3.00;;;1.95;;
18066;SDS011;9158;51.528;7.192;2023-04-03T03:15:01;2.97;;;1.95;;
18066;SDS011;9158;51.528;7.192;2023-04-03T03:15:34;5.97;;;2.85;;
18066;SDS011;9158;51.528;7.192;2023-04-03T03:16:06;2.95;;;2.15;;
18066;SDS011;9158;51.528;7.192;2023-04-03T03:16:38;3.67;;;2.15;;
18066;SDS011;9158;51.528;7.192;2023-04-03T03:17:10;5.03;;;2.40;;
18066;SDS011;9158;51.528;7.192;2023-04-03T03:17:42;2.30;;;2.10;;
18066;SDS011;9158;51.528;7.192;2023-04-03T03:18:14;2.25;;;1.80;;
18066;SDS011;9158;51.528;7.192;2023-04-03T03:18:47;3.63;;;2.05;;
18066;SDS011;9158;51.528;7.192;2023-04-03T03:19:18;4.88;;;2.60;;